Nepton, Kentucky
Current Conditions -  °F | °C
As of 4:15 AM on Tuesday 21 Oct 2014 (Local Time) from KFGX Reporting Station
Broken Clouds Broken Clouds  
Wind Chill:   Ceiling: 5000
Heat Index:   Visibility: 7mi
Dew Point:   Wind: 6mph
Humidity: 99%   Direction: 280°W
Pressure: 29.93"   Gusts: NA
Location:  38.4071°N, 83.873°W
Report Text: KFGX 210815Z AUTO 28005KT 7SM BKN050 09/09 A2993 RMK AO2 T00910089
Loading
Personal Weather Stations






























Interactive Weather Map
Tropical Storm Tracking
New forecast layout! Learn more

10-Day Weather Forecast

Advertisements
Track Severe Weather on mobile